sensor_id;sensor_type;location;lat;lon;timestamp;P1;durP1;ratioP1;P2;durP2;ratioP2
69991;SDS011;57332;51.320;-0.580;2024-03-02T00:02:01;0.38;;;0.38;;
69991;SDS011;57332;51.320;-0.580;2024-03-02T00:04:28;1.30;;;0.28;;
69991;SDS011;57332;51.320;-0.580;2024-03-02T00:06:55;1.17;;;0.40;;
69991;SDS011;57332;51.320;-0.580;2024-03-02T00:09:22;1.83;;;0.50;;
69991;SDS011;57332;51.320;-0.580;2024-03-02T00:11:49;0.88;;;0.22;;
69991;SDS011;57332;51.320;-0.580;2024-03-02T00:14:17;2.80;;;0.40;;
69991;SDS011;57332;51.320;-0.580;2024-03-02T00:16:44;1.85;;;0.50;;
69991;SDS011;57332;51.320;-0.580;2024-03-02T00:19:11;3.25;;;0.40;;
69991;SDS011;57332;51.320;-0.580;2024-03-02T00:21:38;3.15;;;0.50;;
69991;SDS011;57332;51.320;-0.580;2024-03-02T00:24:12;0.35;;;0.20;;
69991;SDS011;57332;51.320;-0.580;2024-03-02T00:26:45;0.93;;;0.50;;
69991;SDS011;57332;51.320;-0.580;2024-03-02T00:29:12;1.20;;;0.60;;
69991;SDS011;57332;51.320;-0.580;2024-03-02T00:31:42;1.55;;;0.50;;
69991;SDS011;57332;51.320;-0.580;2024-03-02T00:34:09;0.30;;;0.30;;
69991;SDS011;57332;51.320;-0.580;2024-03-02T00:36:39;0.15;;;0.15;;
69991;SDS011;57332;51.320;-0.580;2024-03-02T00:39:06;1.55;;;0.30;;
69991;SDS011;57332;51.320;-0.580;2024-03-02T00:41:34;2.50;;;0.40;;
69991;SDS011;57332;51.320;-0.580;2024-03-02T00:44:03;0.80;;;0.32;;
69991;SDS011;57332;51.320;-0.580;2024-03-02T00:46:37;2.90;;;0.35;;
69991;SDS011;57332;51.320;-0.580;2024-03-02T00:49:26;3.00;;;0.70;;
69991;SDS011;57332;51.320;-0.580;2024-03-02T00:51:53;0.77;;;0.40;;
69991;SDS011;57332;51.320;-0.580;2024-03-02T00:54:25;0.73;;;0.32;;
69991;SDS011;57332;51.320;-0.580;2024-03-02T00:56:52;1.80;;;0.47;;
69991;SDS011;57332;51.320;-0.580;2024-03-02T00:59:22;2.20;;;0.45;;
69991;SDS011;57332;51.320;-0.580;2024-03-02T01:01:49;0.63;;;0.40;;
69991;SDS011;57332;51.320;-0.580;2024-03-02T01:04:16;1.00;;;0.20;;
69991;SDS011;57332;51.320;-0.580;2024-03-02T01:06:43;1.33;;;0.30;;
69991;SDS011;57332;51.320;-0.580;2024-03-02T01:09:10;0.38;;;0.30;;
69991;SDS011;57332;51.320;-0.580;2024-03-02T01:11:39;3.75;;;0.47;;
69991;SDS011;57332;51.320;-0.580;2024-03-02T01:14:06;1.17;;;0.43;;
69991;SDS011;57332;51.320;-0.580;2024-03-02T01:16:33;0.73;;;0.25;;
69991;SDS011;57332;51.320;-0.580;2024-03-02T01:19:00;1.38;;;0.32;;
69991;SDS011;57332;51.320;-0.580;2024-03-02T01:21:27;0.57;;;0.30;;
69991;SDS011;57332;51.320;-0.580;2024-03-02T01:23:54;1.73;;;0.30;;
69991;SDS011;57332;51.320;-0.580;2024-03-02T01:26:21;1.10;;;0.30;;
69991;SDS011;57332;51.320;-0.580;2024-03-02T01:28:48;2.33;;;0.30;;
69991;SDS011;57332;51.320;-0.580;2024-03-02T01:31:15;1.92;;;0.40;;
69991;SDS011;57332;51.320;-0.580;2024-03-02T01:33:42;0.40;;;0.30;;
69991;SDS011;57332;51.320;-0.580;2024-03-02T01:36:09;0.52;;;0.15;;
69991;SDS011;57332;51.320;-0.580;2024-03-02T01:38:36;0.20;;;0.20;;
69991;SDS011;57332;51.320;-0.580;2024-03-02T01:41:03;0.30;;;0.10;;
69991;SDS011;57332;51.320;-0.580;2024-03-02T01:43:30;0.45;;;0.30;;
69991;SDS011;57332;51.320;-0.580;2024-03-02T01:45:57;1.33;;;0.20;;
69991;SDS011;57332;51.320;-0.580;2024-03-02T01:48:24;0.35;;;0.17;;
69991;SDS011;57332;51.320;-0.580;2024-03-02T01:50:51;1.40;;;0.40;;
69991;SDS011;57332;51.320;-0.580;2024-03-02T01:53:18;1.92;;;0.10;;
69991;SDS011;57332;51.320;-0.580;2024-03-02T01:55:46;1.75;;;0.10;;
69991;SDS011;57332;51.320;-0.580;2024-03-02T01:58:13;0.20;;;0.20;;
69991;SDS011;57332;51.320;-0.580;2024-03-02T02:00:40;0.38;;;0.20;;
69991;SDS011;57332;51.320;-0.580;2024-03-02T02:03:07;1.40;;;0.10;;
69991;SDS011;57332;51.320;-0.580;2024-03-02T02:05:34;0.75;;;0.10;;
69991;SDS011;57332;51.320;-0.580;2024-03-02T02:08:02;0.28;;;0.08;;
69991;SDS011;57332;51.320;-0.580;2024-03-02T02:10:29;0.65;;;0.17;;
69991;SDS011;57332;51.320;-0.580;2024-03-02T02:12:55;0.50;;;0.08;;
69991;SDS011;57332;51.320;-0.580;2024-03-02T02:15:26;0.08;;;0.08;;
69991;SDS011;57332;51.320;-0.580;2024-03-02T02:17:54;0.20;;;0.20;;
69991;SDS011;57332;51.320;-0.580;2024-03-02T02:20:21;0.40;;;0.10;;
69991;SDS011;57332;51.320;-0.580;2024-03-02T02:25:21;1.35;;;0.40;;
69991;SDS011;57332;51.320;-0.580;2024-03-02T02:27:47;2.05;;;0.10;;
69991;SDS011;57332;51.320;-0.580;2024-03-02T02:30:18;0.30;;;0.10;;
69991;SDS011;57332;51.320;-0.580;2024-03-02T02:32:45;2.97;;;0.20;;
69991;SDS011;57332;51.320;-0.580;2024-03-02T02:35:12;0.00;;;0.00;;
69991;SDS011;57332;51.320;-0.580;2024-03-02T02:37:39;0.05;;;0.00;;
69991;SDS011;57332;51.320;-0.580;2024-03-02T02:40:06;0.20;;;0.20;;
69991;SDS011;57332;51.320;-0.580;2024-03-02T02:42:33;1.00;;;0.10;;
69991;SDS011;57332;51.320;-0.580;2024-03-02T02:45:00;0.28;;;0.10;;
69991;SDS011;57332;51.320;-0.580;2024-03-02T02:47:27;0.35;;;0.00;;
69991;SDS011;57332;51.320;-0.580;2024-03-02T02:49:56;1.67;;;0.03;;
69991;SDS011;57332;51.320;-0.580;2024-03-02T02:52:23;0.20;;;0.03;;
69991;SDS011;57332;51.320;-0.580;2024-03-02T02:54:50;0.03;;;0.03;;
69991;SDS011;57332;51.320;-0.580;2024-03-02T02:57:18;0.47;;;0.10;;
69991;SDS011;57332;51.320;-0.580;2024-03-02T02:59:45;0.13;;;0.10;;
69991;SDS011;57332;51.320;-0.580;2024-03-02T03:02:11;0.15;;;0.05;;
69991;SDS011;57332;51.320;-0.580;2024-03-02T03:04:39;3.40;;;0.30;;
69991;SDS011;57332;51.320;-0.580;2024-03-02T03:07:06;0.70;;;0.35;;
69991;SDS011;57332;51.320;-0.580;2024-03-02T03:09:33;1.02;;;0.20;;
69991;SDS011;57332;51.320;-0.580;2024-03-02T03:12:03;1.45;;;0.30;;
69991;SDS011;57332;51.320;-0.580;2024-03-02T03:14:30;1.05;;;0.45;;
69991;SDS011;57332;51.320;-0.580;2024-03-02T03:16:57;2.65;;;0.50;;
69991;SDS011;57332;51.320;-0.580;2024-03-02T03:19:24;2.42;;;0.40;;
69991;SDS011;57332;51.320;-0.580;2024-03-02T03:21:51;1.83;;;0.35;;
69991;SDS011;57332;51.320;-0.580;2024-03-02T03:24:18;3.58;;;0.43;;
69991;SDS011;57332;51.320;-0.580;2024-03-02T03:26:45;4.07;;;0.85;;
69991;SDS011;57332;51.320;-0.580;2024-03-02T03:29:12;5.40;;;0.50;;
69991;SDS011;57332;51.320;-0.580;2024-03-02T03:31:39;2.60;;;0.60;;
69991;SDS011;57332;51.320;-0.580;2024-03-02T03:34:06;4.15;;;0.60;;
69991;SDS011;57332;51.320;-0.580;2024-03-02T03:36:33;5.80;;;0.80;;
69991;SDS011;57332;51.320;-0.580;2024-03-02T03:39:00;3.50;;;0.60;;
69991;SDS011;57332;51.320;-0.580;2024-03-02T03:41:28;2.42;;;0.63;;
69991;SDS011;57332;51.320;-0.580;2024-03-02T03:43:58;2.45;;;0.50;;
69991;SDS011;57332;51.320;-0.580;2024-03-02T03:46:25;4.95;;;0.77;;
69991;SDS011;57332;51.320;-0.580;2024-03-02T03:48:52;3.00;;;0.85;;
69991;SDS011;57332;51.320;-0.580;2024-03-02T03:51:19;4.40;;;0.63;;
69991;SDS011;57332;51.320;-0.580;2024-03-02T03:53:46;3.33;;;0.50;;
69991;SDS011;57332;51.320;-0.580;2024-03-02T03:56:13;5.80;;;0.93;;
69991;SDS011;57332;51.320;-0.580;2024-03-02T03:58:40;3.60;;;0.75;;
69991;SDS011;57332;51.320;-0.580;2024-03-02T04:01:07;4.15;;;0.77;;
69991;SDS011;57332;51.320;-0.580;2024-03-02T04:03:34;8.40;;;0.73;;
69991;SDS011;57332;51.320;-0.580;2024-03-02T04:06:01;5.43;;;1.00;;
69991;SDS011;57332;51.320;-0.580;2024-03-02T04:08:28;3.72;;;0.68;;
69991;SDS011;57332;51.320;-0.580;2024-03-02T04:10:55;6.45;;;1.00;;
69991;SDS011;57332;51.320;-0.580;2024-03-02T04:13:22;4.63;;;0.80;;
69991;SDS011;57332;51.320;-0.580;2024-03-02T04:15:48;5.63;;;1.00;;
69991;SDS011;57332;51.320;-0.580;2024-03-02T04:18:15;4.20;;;0.90;;
69991;SDS011;57332;51.320;-0.580;2024-03-02T04:20:43;3.65;;;0.65;;
69991;SDS011;57332;51.320;-0.580;2024-03-02T04:23:09;5.65;;;0.68;;
69991;SDS011;57332;51.320;-0.580;2024-03-02T04:25:36;3.53;;;0.63;;
69991;SDS011;57332;51.320;-0.580;2024-03-02T04:28:03;4.18;;;0.80;;
69991;SDS011;57332;51.320;-0.580;2024-03-02T04:30:30;3.78;;;0.82;;
69991;SDS011;57332;51.320;-0.580;2024-03-02T04:32:57;4.68;;;0.77;;
69991;SDS011;57332;51.320;-0.580;2024-03-02T04:35:24;4.97;;;0.73;;
69991;SDS011;57332;51.320;-0.580;2024-03-02T04:37:52;6.05;;;1.25;;
69991;SDS011;57332;51.320;-0.580;2024-03-02T04:40:19;5.10;;;0.80;;
69991;SDS011;57332;51.320;-0.580;2024-03-02T04:42:45;12.02;;;1.00;;
69991;SDS011;57332;51.320;-0.580;2024-03-02T04:45:12;5.88;;;0.68;;
69991;SDS011;57332;51.320;-0.580;2024-03-02T04:47:39;3.63;;;0.77;;
69991;SDS011;57332;51.320;-0.580;2024-03-02T04:50:06;5.10;;;0.85;;
69991;SDS011;57332;51.320;-0.580;2024-03-02T04:52:34;6.88;;;1.00;;
69991;SDS011;57332;51.320;-0.580;2024-03-02T04:55:01;4.60;;;0.55;;
69991;SDS011;57332;51.320;-0.580;2024-03-02T04:58:02;4.05;;;0.70;;
69991;SDS011;57332;51.320;-0.580;2024-03-02T05:00:29;7.95;;;0.98;;
69991;SDS011;57332;51.320;-0.580;2024-03-02T05:02:56;8.02;;;0.75;;
69991;SDS011;57332;51.320;-0.580;2024-03-02T05:05:23;7.95;;;0.90;;
69991;SDS011;57332;51.320;-0.580;2024-03-02T05:07:50;3.25;;;0.82;;
69991;SDS011;57332;51.320;-0.580;2024-03-02T05:10:17;5.90;;;1.10;;
69991;SDS011;57332;51.320;-0.580;2024-03-02T05:12:44;4.68;;;0.70;;
69991;SDS011;57332;51.320;-0.580;2024-03-02T05:15:14;6.00;;;1.05;;
69991;SDS011;57332;51.320;-0.580;2024-03-02T05:17:41;5.78;;;0.65;;
69991;SDS011;57332;51.320;-0.580;2024-03-02T05:20:11;6.47;;;1.30;;
69991;SDS011;57332;51.320;-0.580;2024-03-02T05:22:38;2.67;;;0.75;;
69991;SDS011;57332;51.320;-0.580;2024-03-02T05:25:06;4.90;;;0.70;;
69991;SDS011;57332;51.320;-0.580;2024-03-02T05:27:33;3.90;;;0.85;;
69991;SDS011;57332;51.320;-0.580;2024-03-02T05:30:00;4.75;;;0.88;;
69991;SDS011;57332;51.320;-0.580;2024-03-02T05:32:27;3.95;;;0.50;;
69991;SDS011;57332;51.320;-0.580;2024-03-02T05:34:54;4.50;;;0.80;;
69991;SDS011;57332;51.320;-0.580;2024-03-02T05:37:21;4.07;;;0.68;;
69991;SDS011;57332;51.320;-0.580;2024-03-02T05:39:49;4.90;;;0.90;;
69991;SDS011;57332;51.320;-0.580;2024-03-02T05:42:16;4.57;;;1.00;;
69991;SDS011;57332;51.320;-0.580;2024-03-02T05:44:46;4.18;;;0.93;;
69991;SDS011;57332;51.320;-0.580;2024-03-02T05:47:13;3.67;;;0.77;;
69991;SDS011;57332;51.320;-0.580;2024-03-02T05:49:40;4.13;;;0.57;;
69991;SDS011;57332;51.320;-0.580;2024-03-02T05:52:06;7.82;;;0.73;;
69991;SDS011;57332;51.320;-0.580;2024-03-02T05:54:33;2.15;;;0.60;;
69991;SDS011;57332;51.320;-0.580;2024-03-02T05:57:00;2.75;;;0.57;;
69991;SDS011;57332;51.320;-0.580;2024-03-02T05:59:44;4.10;;;0.90;;
69991;SDS011;57332;51.320;-0.580;2024-03-02T06:02:11;2.25;;;0.77;;
69991;SDS011;57332;51.320;-0.580;2024-03-02T06:04:38;2.05;;;0.70;;
69991;SDS011;57332;51.320;-0.580;2024-03-02T06:07:05;7.68;;;0.70;;
69991;SDS011;57332;51.320;-0.580;2024-03-02T06:09:32;1.40;;;0.40;;
69991;SDS011;57332;51.320;-0.580;2024-03-02T06:11:59;4.78;;;0.60;;
69991;SDS011;57332;51.320;-0.580;2024-03-02T06:14:26;3.40;;;0.47;;
69991;SDS011;57332;51.320;-0.580;2024-03-02T06:16:53;3.03;;;0.60;;
69991;SDS011;57332;51.320;-0.580;2024-03-02T06:19:19;3.88;;;0.70;;
69991;SDS011;57332;51.320;-0.580;2024-03-02T06:21:46;2.55;;;0.70;;
69991;SDS011;57332;51.320;-0.580;2024-03-02T06:24:13;5.70;;;0.77;;
69991;SDS011;57332;51.320;-0.580;2024-03-02T06:26:40;3.67;;;0.50;;
69991;SDS011;57332;51.320;-0.580;2024-03-02T06:29:08;3.67;;;0.50;;
69991;SDS011;57332;51.320;-0.580;2024-03-02T06:31:35;5.32;;;1.10;;
69991;SDS011;57332;51.320;-0.580;2024-03-02T06:34:02;2.63;;;0.70;;
69991;SDS011;57332;51.320;-0.580;2024-03-02T06:36:30;3.85;;;0.60;;
69991;SDS011;57332;51.320;-0.580;2024-03-02T06:38:57;3.83;;;0.50;;
69991;SDS011;57332;51.320;-0.580;2024-03-02T06:41:24;2.38;;;0.25;;
69991;SDS011;57332;51.320;-0.580;2024-03-02T06:43:51;2.35;;;0.32;;
69991;SDS011;57332;51.320;-0.580;2024-03-02T06:46:26;3.03;;;0.40;;
69991;SDS011;57332;51.320;-0.580;2024-03-02T06:48:52;3.28;;;0.50;;
69991;SDS011;57332;51.320;-0.580;2024-03-02T06:51:19;4.50;;;0.75;;
69991;SDS011;57332;51.320;-0.580;2024-03-02T06:53:46;1.17;;;0.20;;
69991;SDS011;57332;51.320;-0.580;2024-03-02T06:56:14;4.25;;;0.40;;
69991;SDS011;57332;51.320;-0.580;2024-03-02T06:58:40;1.30;;;0.28;;
69991;SDS011;57332;51.320;-0.580;2024-03-02T07:01:09;1.23;;;0.45;;
69991;SDS011;57332;51.320;-0.580;2024-03-02T07:03:36;1.00;;;0.20;;
69991;SDS011;57332;51.320;-0.580;2024-03-02T07:06:04;1.60;;;0.38;;
69991;SDS011;57332;51.320;-0.580;2024-03-02T07:08:31;0.95;;;0.30;;
69991;SDS011;57332;51.320;-0.580;2024-03-02T07:10:58;1.15;;;0.20;;
69991;SDS011;57332;51.320;-0.580;2024-03-02T07:13:25;0.30;;;0.20;;
69991;SDS011;57332;51.320;-0.580;2024-03-02T07:15:52;0.30;;;0.10;;
69991;SDS011;57332;51.320;-0.580;2024-03-02T07:18:32;2.95;;;0.30;;
69991;SDS011;57332;51.320;-0.580;2024-03-02T07:21:00;3.40;;;0.50;;
69991;SDS011;57332;51.320;-0.580;2024-03-02T07:23:28;1.85;;;0.17;;
69991;SDS011;57332;51.320;-0.580;2024-03-02T07:25:55;2.38;;;0.20;;
69991;SDS011;57332;51.320;-0.580;2024-03-02T07:28:26;0.43;;;0.10;;
69991;SDS011;57332;51.320;-0.580;2024-03-02T07:31:02;1.40;;;0.20;;
69991;SDS011;57332;51.320;-0.580;2024-03-02T07:33:31;0.88;;;0.20;;
69991;SDS011;57332;51.320;-0.580;2024-03-02T07:35:59;1.80;;;0.35;;
69991;SDS011;57332;51.320;-0.580;2024-03-02T07:40:57;1.10;;;0.30;;
69991;SDS011;57332;51.320;-0.580;2024-03-02T07:43:24;0.98;;;0.45;;
69991;SDS011;57332;51.320;-0.580;2024-03-02T07:45:51;1.50;;;0.22;;
69991;SDS011;57332;51.320;-0.580;2024-03-02T07:48:18;1.73;;;0.30;;
69991;SDS011;57332;51.320;-0.580;2024-03-02T07:50:45;0.22;;;0.17;;
69991;SDS011;57332;51.320;-0.580;2024-03-02T07:53:12;0.28;;;0.17;;
69991;SDS011;57332;51.320;-0.580;2024-03-02T07:55:39;0.32;;;0.20;;
69991;SDS011;57332;51.320;-0.580;2024-03-02T07:58:07;2.15;;;0.25;;
69991;SDS011;57332;51.320;-0.580;2024-03-02T08:00:33;0.52;;;0.22;;
69991;SDS011;57332;51.320;-0.580;2024-03-02T08:03:02;0.13;;;0.10;;
69991;SDS011;57332;51.320;-0.580;2024-03-02T08:05:28;0.60;;;0.20;;
69991;SDS011;57332;51.320;-0.580;2024-03-02T08:07:55;3.67;;;0.30;;
69991;SDS011;57332;51.320;-0.580;2024-03-02T08:10:22;2.33;;;0.20;;
69991;SDS011;57332;51.320;-0.580;2024-03-02T08:12:49;0.50;;;0.10;;
69991;SDS011;57332;51.320;-0.580;2024-03-02T08:15:16;1.15;;;0.20;;
69991;SDS011;57332;51.320;-0.580;2024-03-02T08:17:44;0.00;;;0.00;;
69991;SDS011;57332;51.320;-0.580;2024-03-02T08:20:16;3.88;;;0.20;;
69991;SDS011;57332;51.320;-0.580;2024-03-02T08:22:43;0.47;;;0.10;;
69991;SDS011;57332;51.320;-0.580;2024-03-02T08:25:11;0.15;;;0.15;;
69991;SDS011;57332;51.320;-0.580;2024-03-02T08:27:39;1.00;;;0.20;;
69991;SDS011;57332;51.320;-0.580;2024-03-02T08:30:06;1.20;;;0.20;;
69991;SDS011;57332;51.320;-0.580;2024-03-02T08:32:35;0.43;;;0.30;;
69991;SDS011;57332;51.320;-0.580;2024-03-02T08:35:02;0.13;;;0.13;;
69991;SDS011;57332;51.320;-0.580;2024-03-02T08:37:29;1.20;;;0.20;;
69991;SDS011;57332;51.320;-0.580;2024-03-02T08:39:55;0.75;;;0.15;;
69991;SDS011;57332;51.320;-0.580;2024-03-02T08:42:23;1.48;;;0.40;;
69991;SDS011;57332;51.320;-0.580;2024-03-02T08:44:49;0.40;;;0.15;;
69991;SDS011;57332;51.320;-0.580;2024-03-02T08:47:17;0.10;;;0.10;;
69991;SDS011;57332;51.320;-0.580;2024-03-02T08:49:44;0.38;;;0.08;;
69991;SDS011;57332;51.320;-0.580;2024-03-02T08:52:11;0.38;;;0.20;;
69991;SDS011;57332;51.320;-0.580;2024-03-02T08:54:37;1.67;;;0.20;;
69991;SDS011;57332;51.320;-0.580;2024-03-02T08:57:05;0.95;;;0.35;;
69991;SDS011;57332;51.320;-0.580;2024-03-02T08:59:32;2.60;;;0.90;;
69991;SDS011;57332;51.320;-0.580;2024-03-02T09:01:59;2.58;;;0.85;;
69991;SDS011;57332;51.320;-0.580;2024-03-02T09:04:26;3.33;;;0.98;;
69991;SDS011;57332;51.320;-0.580;2024-03-02T09:06:57;2.58;;;0.85;;
69991;SDS011;57332;51.320;-0.580;2024-03-02T09:09:24;1.35;;;0.63;;
69991;SDS011;57332;51.320;-0.580;2024-03-02T09:11:51;1.15;;;0.43;;
69991;SDS011;57332;51.320;-0.580;2024-03-02T09:14:21;3.47;;;0.50;;
69991;SDS011;57332;51.320;-0.580;2024-03-02T09:16:48;0.80;;;0.30;;
69991;SDS011;57332;51.320;-0.580;2024-03-02T09:19:15;1.10;;;0.40;;
69991;SDS011;57332;51.320;-0.580;2024-03-02T09:21:43;0.82;;;0.30;;
69991;SDS011;57332;51.320;-0.580;2024-03-02T09:24:10;1.95;;;0.50;;
69991;SDS011;57332;51.320;-0.580;2024-03-02T09:26:39;1.58;;;0.50;;
69991;SDS011;57332;51.320;-0.580;2024-03-02T09:29:06;1.55;;;0.75;;
69991;SDS011;57332;51.320;-0.580;2024-03-02T09:31:33;0.93;;;0.50;;
69991;SDS011;57332;51.320;-0.580;2024-03-02T09:34:05;1.75;;;0.22;;
69991;SDS011;57332;51.320;-0.580;2024-03-02T09:36:32;1.23;;;0.30;;
69991;SDS011;57332;51.320;-0.580;2024-03-02T09:38:59;0.98;;;0.30;;
69991;SDS011;57332;51.320;-0.580;2024-03-02T09:41:26;0.60;;;0.40;;
69991;SDS011;57332;51.320;-0.580;2024-03-02T09:43:53;3.35;;;0.55;;
69991;SDS011;57332;51.320;-0.580;2024-03-02T09:46:20;0.93;;;0.43;;
69991;SDS011;57332;51.320;-0.580;2024-03-02T09:48:47;2.28;;;0.50;;
69991;SDS011;57332;51.320;-0.580;2024-03-02T09:51:14;0.73;;;0.35;;
69991;SDS011;57332;51.320;-0.580;2024-03-02T09:53:41;0.43;;;0.43;;
69991;SDS011;57332;51.320;-0.580;2024-03-02T09:56:09;1.35;;;0.50;;
69991;SDS011;57332;51.320;-0.580;2024-03-02T09:58:35;1.45;;;0.47;;
69991;SDS011;57332;51.320;-0.580;2024-03-02T10:01:05;0.75;;;0.20;;
69991;SDS011;57332;51.320;-0.580;2024-03-02T10:03:32;1.08;;;0.30;;
69991;SDS011;57332;51.320;-0.580;2024-03-02T10:06:21;2.22;;;0.20;;
69991;SDS011;57332;51.320;-0.580;2024-03-02T10:08:48;0.52;;;0.20;;
69991;SDS011;57332;51.320;-0.580;2024-03-02T10:14:05;0.30;;;0.30;;
69991;SDS011;57332;51.320;-0.580;2024-03-02T10:16:35;0.38;;;0.22;;
69991;SDS011;57332;51.320;-0.580;2024-03-02T10:19:14;1.15;;;0.30;;
69991;SDS011;57332;51.320;-0.580;2024-03-02T10:21:41;0.70;;;0.15;;
69991;SDS011;57332;51.320;-0.580;2024-03-02T10:24:09;3.42;;;0.60;;
69991;SDS011;57332;51.320;-0.580;2024-03-02T10:26:36;1.52;;;0.50;;
69991;SDS011;57332;51.320;-0.580;2024-03-02T10:29:03;0.57;;;0.30;;
69991;SDS011;57332;51.320;-0.580;2024-03-02T10:31:30;2.75;;;0.40;;
69991;SDS011;57332;51.320;-0.580;2024-03-02T10:33:59;0.55;;;0.25;;
69991;SDS011;57332;51.320;-0.580;2024-03-02T10:36:27;0.10;;;0.10;;
69991;SDS011;57332;51.320;-0.580;2024-03-02T10:38:56;1.30;;;0.22;;
69991;SDS011;57332;51.320;-0.580;2024-03-02T10:41:23;0.70;;;0.17;;
69991;SDS011;57332;51.320;-0.580;2024-03-02T10:43:51;1.75;;;0.20;;
69991;SDS011;57332;51.320;-0.580;2024-03-02T10:46:19;0.63;;;0.20;;
69991;SDS011;57332;51.320;-0.580;2024-03-02T10:48:46;0.52;;;0.35;;
69991;SDS011;57332;51.320;-0.580;2024-03-02T10:51:13;0.63;;;0.20;;
69991;SDS011;57332;51.320;-0.580;2024-03-02T10:53:40;0.47;;;0.10;;
69991;SDS011;57332;51.320;-0.580;2024-03-02T10:56:07;1.30;;;0.25;;
69991;SDS011;57332;51.320;-0.580;2024-03-02T10:58:34;0.30;;;0.30;;
69991;SDS011;57332;51.320;-0.580;2024-03-02T11:01:02;0.22;;;0.22;;
69991;SDS011;57332;51.320;-0.580;2024-03-02T11:03:30;0.55;;;0.20;;
69991;SDS011;57332;51.320;-0.580;2024-03-02T11:06:00;0.38;;;0.20;;
69991;SDS011;57332;51.320;-0.580;2024-03-02T11:08:27;1.38;;;0.30;;
69991;SDS011;57332;51.320;-0.580;2024-03-02T11:10:57;0.52;;;0.30;;
69991;SDS011;57332;51.320;-0.580;2024-03-02T11:13:27;1.08;;;0.43;;
69991;SDS011;57332;51.320;-0.580;2024-03-02T11:15:59;0.47;;;0.38;;
69991;SDS011;57332;51.320;-0.580;2024-03-02T11:18:31;0.45;;;0.30;;
69991;SDS011;57332;51.320;-0.580;2024-03-02T11:20:58;0.52;;;0.20;;
69991;SDS011;57332;51.320;-0.580;2024-03-02T11:23:32;0.22;;;0.20;;
69991;SDS011;57332;51.320;-0.580;2024-03-02T11:26:18;1.83;;;0.20;;
69991;SDS011;57332;51.320;-0.580;2024-03-02T11:28:45;0.20;;;0.20;;
69991;SDS011;57332;51.320;-0.580;2024-03-02T11:31:12;1.45;;;0.22;;
69991;SDS011;57332;51.320;-0.580;2024-03-02T11:33:39;0.32;;;0.20;;
69991;SDS011;57332;51.320;-0.580;2024-03-02T11:36:06;1.35;;;0.20;;
69991;SDS011;57332;51.320;-0.580;2024-03-02T11:38:36;0.47;;;0.20;;
69991;SDS011;57332;51.320;-0.580;2024-03-02T11:41:06;0.35;;;0.30;;
69991;SDS011;57332;51.320;-0.580;2024-03-02T11:43:39;1.58;;;0.50;;
69991;SDS011;57332;51.320;-0.580;2024-03-02T11:46:06;0.20;;;0.20;;
69991;SDS011;57332;51.320;-0.580;2024-03-02T11:48:35;0.22;;;0.22;;
69991;SDS011;57332;51.320;-0.580;2024-03-02T11:51:02;0.52;;;0.30;;
69991;SDS011;57332;51.320;-0.580;2024-03-02T11:53:29;0.43;;;0.20;;
69991;SDS011;57332;51.320;-0.580;2024-03-02T11:56:01;1.17;;;0.13;;
69991;SDS011;57332;51.320;-0.580;2024-03-02T11:58:28;1.27;;;0.40;;
69991;SDS011;57332;51.320;-0.580;2024-03-02T12:00:56;1.58;;;0.20;;
69991;SDS011;57332;51.320;-0.580;2024-03-02T12:03:25;1.40;;;0.40;;
69991;SDS011;57332;51.320;-0.580;2024-03-02T12:05:53;0.13;;;0.10;;
69991;SDS011;57332;51.320;-0.580;2024-03-02T12:08:20;2.45;;;0.50;;
69991;SDS011;57332;51.320;-0.580;2024-03-02T12:10:58;5.07;;;1.80;;
69991;SDS011;57332;51.320;-0.580;2024-03-02T12:13:25;2.38;;;0.40;;
69991;SDS011;57332;51.320;-0.580;2024-03-02T12:15:55;0.47;;;0.25;;
69991;SDS011;57332;51.320;-0.580;2024-03-02T12:18:23;0.30;;;0.10;;
69991;SDS011;57332;51.320;-0.580;2024-03-02T12:20:50;0.82;;;0.30;;
69991;SDS011;57332;51.320;-0.580;2024-03-02T12:23:19;0.75;;;0.20;;
69991;SDS011;57332;51.320;-0.580;2024-03-02T12:25:46;1.17;;;0.22;;
69991;SDS011;57332;51.320;-0.580;2024-03-02T12:28:13;2.00;;;0.32;;
69991;SDS011;57332;51.320;-0.580;2024-03-02T12:30:40;0.35;;;0.20;;
69991;SDS011;57332;51.320;-0.580;2024-03-02T12:33:07;1.13;;;0.30;;
69991;SDS011;57332;51.320;-0.580;2024-03-02T12:35:35;0.80;;;0.20;;
69991;SDS011;57332;51.320;-0.580;2024-03-02T12:38:02;1.35;;;0.40;;
69991;SDS011;57332;51.320;-0.580;2024-03-02T12:40:30;0.70;;;0.40;;
69991;SDS011;57332;51.320;-0.580;2024-03-02T12:42:57;1.05;;;0.70;;
69991;SDS011;57332;51.320;-0.580;2024-03-02T12:45:24;1.58;;;0.25;;
69991;SDS011;57332;51.320;-0.580;2024-03-02T12:47:51;1.50;;;0.30;;
69991;SDS011;57332;51.320;-0.580;2024-03-02T12:50:20;1.30;;;0.40;;
69991;SDS011;57332;51.320;-0.580;2024-03-02T12:52:53;0.57;;;0.30;;
69991;SDS011;57332;51.320;-0.580;2024-03-02T12:55:21;0.90;;;0.40;;
69991;SDS011;57332;51.320;-0.580;2024-03-02T12:57:51;1.17;;;0.38;;
69991;SDS011;57332;51.320;-0.580;2024-03-02T13:00:19;0.55;;;0.50;;
69991;SDS011;57332;51.320;-0.580;2024-03-02T13:02:46;0.28;;;0.28;;
69991;SDS011;57332;51.320;-0.580;2024-03-02T13:05:14;1.05;;;0.63;;
69991;SDS011;57332;51.320;-0.580;2024-03-02T13:07:41;0.60;;;0.30;;
69991;SDS011;57332;51.320;-0.580;2024-03-02T13:10:09;2.00;;;0.47;;
69991;SDS011;57332;51.320;-0.580;2024-03-02T13:12:36;0.63;;;0.40;;
69991;SDS011;57332;51.320;-0.580;2024-03-02T13:15:04;0.80;;;0.43;;
69991;SDS011;57332;51.320;-0.580;2024-03-02T13:17:35;0.65;;;0.38;;
69991;SDS011;57332;51.320;-0.580;2024-03-02T13:20:04;0.43;;;0.35;;
69991;SDS011;57332;51.320;-0.580;2024-03-02T13:22:35;0.68;;;0.50;;
69991;SDS011;57332;51.320;-0.580;2024-03-02T13:25:02;2.13;;;0.60;;
69991;SDS011;57332;51.320;-0.580;2024-03-02T13:27:33;0.70;;;0.30;;
69991;SDS011;57332;51.320;-0.580;2024-03-02T13:30:03;1.33;;;0.50;;
69991;SDS011;57332;51.320;-0.580;2024-03-02T13:32:32;1.00;;;0.90;;
69991;SDS011;57332;51.320;-0.580;2024-03-02T13:34:59;0.63;;;0.52;;
69991;SDS011;57332;51.320;-0.580;2024-03-02T13:37:27;0.60;;;0.60;;
69991;SDS011;57332;51.320;-0.580;2024-03-02T13:39:54;1.20;;;0.50;;
69991;SDS011;57332;51.320;-0.580;2024-03-02T13:42:20;0.55;;;0.43;;
69991;SDS011;57332;51.320;-0.580;2024-03-02T13:44:48;0.52;;;0.38;;
69991;SDS011;57332;51.320;-0.580;2024-03-02T13:47:17;1.27;;;0.57;;
69991;SDS011;57332;51.320;-0.580;2024-03-02T13:49:44;0.77;;;0.38;;
69991;SDS011;57332;51.320;-0.580;2024-03-02T13:52:14;1.15;;;0.50;;
69991;SDS011;57332;51.320;-0.580;2024-03-02T13:54:41;1.75;;;0.70;;
69991;SDS011;57332;51.320;-0.580;2024-03-02T13:57:09;0.93;;;0.60;;
69991;SDS011;57332;51.320;-0.580;2024-03-02T13:59:36;1.05;;;0.60;;
69991;SDS011;57332;51.320;-0.580;2024-03-02T14:02:06;0.90;;;0.52;;
69991;SDS011;57332;51.320;-0.580;2024-03-02T14:04:34;0.90;;;0.50;;
69991;SDS011;57332;51.320;-0.580;2024-03-02T14:07:02;1.25;;;0.68;;
69991;SDS011;57332;51.320;-0.580;2024-03-02T14:09:29;1.95;;;0.75;;
69991;SDS011;57332;51.320;-0.580;2024-03-02T14:11:56;1.20;;;0.60;;
69991;SDS011;57332;51.320;-0.580;2024-03-02T14:14:23;1.30;;;0.65;;
69991;SDS011;57332;51.320;-0.580;2024-03-02T14:16:51;1.02;;;0.80;;
69991;SDS011;57332;51.320;-0.580;2024-03-02T14:19:18;1.13;;;0.68;;
69991;SDS011;57332;51.320;-0.580;2024-03-02T14:21:45;1.60;;;0.77;;
69991;SDS011;57332;51.320;-0.580;2024-03-02T14:24:14;0.80;;;0.47;;
69991;SDS011;57332;51.320;-0.580;2024-03-02T14:26:41;1.15;;;0.80;;
69991;SDS011;57332;51.320;-0.580;2024-03-02T14:29:08;0.85;;;0.50;;
69991;SDS011;57332;51.320;-0.580;2024-03-02T14:31:34;1.40;;;0.60;;
69991;SDS011;57332;51.320;-0.580;2024-03-02T14:34:02;1.23;;;0.70;;
69991;SDS011;57332;51.320;-0.580;2024-03-02T14:36:29;0.90;;;0.65;;
69991;SDS011;57332;51.320;-0.580;2024-03-02T14:38:57;1.20;;;0.75;;
69991;SDS011;57332;51.320;-0.580;2024-03-02T14:41:24;1.13;;;0.60;;
69991;SDS011;57332;51.320;-0.580;2024-03-02T14:43:51;2.00;;;0.80;;
69991;SDS011;57332;51.320;-0.580;2024-03-02T14:46:19;1.45;;;0.70;;